Skip Navigation Links Skip Navigation Links

Current Weather

St Clair County Intl, Port Huron, Mich.

For information only: do not use for flight planning or navigation.
Latest weather
Observation time Saturday, October 19, 2019 6:16 AM EDT
Local time Saturday, October 19, 2019 6:30 AM EDT
Flight conditions Low Instrument Meteorological Conditions
Winds
Wind speed calm
Visibility 1 mi.
Present weather mist
Sky condition
Ceiling 200 ft. broken clouds
Cloud layer broken clouds 200 ft.
Temperature 32°F
Dewpoint 28°F
Altimeter 30.03 in.Hg
Derived measurements
Relative humidity 86%
Wind chill 32°F
Density altitude -1228 ft.
Remarks
Fully automated report.
Automated weather observing station with precipitation discriminator.
METAR KPHN 191016Z AUTO 00000KT 1SM BR BKN002 M00/M02 A3003 RMK AO2

Settings

Location code

InnerDrive.Weather 4.0.6770.0 Release CLR 4.0.30319.42000
Copyright ©2018 Inner Drive Technology. All rights reserved. Portions Copyright ©1986-2018 David Braverman.

Find weather

Site navigation


Skip Navigation Links

Place info

Page info

PayPal - The safer, easier way to pay online!

Return home.

Copyright ©2019 Inner Drive Technology. Purveyors of fine, hand-crafted computer software. Page printed 2019-10-19T10:30:19 UTC.